Cheverie, Canada
Current Conditions -  °F | °C
As of 2:00 PM on Sunday 21 Dec 2014 (Local Time) from CYHZ Reporting Station
Overcast Overcast  
Wind Chill: 23°   Ceiling: 2000
Heat Index: 30°   Visibility: 15mi
Dew Point: 23°   Wind: 7mph
Humidity: 75%   Direction: 20°NNE
Pressure: 30.31"   Gusts: NA
Location:  45.15°N, 64.17°W
Report Text: CYHZ 211800Z 02006KT 15SM OVC020 M01/M05 A3031 RMK SC8 SLP272
Loading
Personal Weather Stations






























Interactive Weather Map New forecast layout! Learn more

10-Day Weather Forecast

Advertisements
Track Severe Weather on mobile